This is the latest recevied weather packets stored in our database for station/object DG1GMY-10. If no packets are shown the sender has not sent any weather packets the latest 10 day(s).
| Time | Temp. | Humidity | Pressure | Rain* | Wind** | Luminosity | Snow |
|---|---|---|---|---|---|---|---|
| 1787700986 | 16.67° C | 100% | 1017.7 hPa | - | - | - | - |
| 1787697386 | 16.67° C | 100% | 1017.7 hPa | - | - | - | - |
| 1787693786 | 16.11° C | 100% | 1017.5 hPa | - | - | - | - |
| 1787690185 | 16.67° C | 100% | 1017.2 hPa | - | - | - | - |
| 1787686585 | 17.22° C | 100% | 1017.6 hPa | - | - | - | - |
| 1787682985 | 17.22° C | 100% | 1016.6 hPa | - | - | - | - |
| 1787679385 | 18.89° C | 100% | 1016.4 hPa | - | - | - | - |
| 1787675785 | 19.44° C | 95% | 1016.2 hPa | - | - | - | - |
| 1787672185 | 20° C | 88% | 1016.2 hPa | - | - | - | - |
| 1787668585 | 20.56° C | 82% | 1016.2 hPa | - | - | - | - |
| 1787664985 | 21.67° C | 75% | 1015.9 hPa | - | - | - | - |
| 1787661385 | 23.89° C | 62% | 1015.5 hPa | - | - | - | - |
| 1787657784 | 22.78° C | 68% | 1015.6 hPa | - | - | - | - |
| 1787654184 | 20.56° C | 87% | 1015.9 hPa | - | - | - | - |
| 1787650584 | 18.33° C | 93% | 1015.6 hPa | - | - | - | - |
| 1787646984 | 17.78° C | 97% | 1015.6 hPa | - | - | - | - |
| 1787643384 | 17.22° C | 93% | 1015.2 hPa | - | - | - | - |
| 1787639784 | 16.67° C | 89% | 1014.6 hPa | - | - | - | - |
| 1787636184 | 16.67° C | 92% | 1014.4 hPa | - | - | - | - |
| 1787632584 | 16.11° C | 94% | 1013.7 hPa | - | - | - | - |
| 1787628984 | 16.67° C | 96% | 1013.3 hPa | - | - | - | - |
| 1787625384 | 16.11° C | 96% | 1012.2 hPa | - | - | - | - |
| 1787621784 | 16.67° C | 91% | 1012.2 hPa | - | - | - | - |
| 1787618183 | 16.67° C | 100% | 1013.5 hPa | - | - | - | - |
| 1787614583 | 17.78° C | 63% | 1013.1 hPa | - | - | - | - |
* Rain since midnight (hover to see other rain measurements)
** Current wind speed in m/s (hover to see current wind gust speed)